• °C
  • Pobieranie danych...
wx



TAF EPBY 302330Z 0100/0124 03008KT 9999 SCT014 BKN040
PROB40 TEMPO 0100/0108 4000 -RA BR BKN007 BKN014=

TAF AMD EPGD 010428Z 0104/0124 08010KT 9999 BKN009 OVC013
BECMG 0106/0109 SCT045=

TAF EPKK 010230Z 0103/0203 30008KT 6000 BKN014
TEMPO 0103/0108 3500 -RA BR BKN004 BKN009
PROB30 TEMPO 0103/0107 0700 DZ FG BKN001
TEMPO 0108/0121 4000 -RA BR BKN007
PROB30 TEMPO 0112/0118 2000 SHRA BKN004 BKN012CB
PROB40 TEMPO 0121/0203 1200 BR BKN004=

TAF EPKT 302330Z 0100/0124 34010KT 6000 -RA BKN013
TEMPO 0100/0124 3000 RA BR BKN005 BKN010
PROB40 TEMPO 0100/0106 0800 DZ FG BKN002=

TAF EPLL 302330Z 0100/0124 03008KT 9999 -RA SCT012 BKN020
TEMPO 0100/0107 4000 -RADZ BR BKN005
TEMPO 0107/0121 BKN012
PROB40 TEMPO 0107/0118 BKN007=

TAF EPMO 302330Z 0100/0124 03007KT 8000 -RA SCT012 BKN020
TEMPO 0100/0107 4000 -RADZ BR BKN004 BKN006
TEMPO 0107/0121 BKN012
PROB40 TEMPO 0107/0118 BKN007=

TAF AMD EPPO 010316Z 0103/0124 01007KT 9999 BKN007
TEMPO 0104/0108 4000 -RA BR
BECMG 0106/0109 BKN013=

TAF EPRZ 302330Z 0100/0124 36006KT 6000 -RA BKN012
TEMPO 0100/0106 2500 DZ BR BKN004
PROB40 TEMPO 0100/0106 0600 DZ FG BKN001
TEMPO 0106/0124 3000 RA BR BKN007=

TAF EPSC 302330Z 0100/0124 05005KT CAVOK
PROB40 TEMPO 0100/0105 3000 BR
PROB40 TEMPO 0105/0110 -RA BKN014=

TAF EPWA 010230Z 0103/0203 04008KT 9999 SCT008 BKN015
TEMPO 0103/0203 -RA BKN007
PROB40 TEMPO 0121/0203 3000 SHRA BR BKN003 BKN010CB=

TAF EPWR 010230Z 0103/0203 32009KT 7000 -RA BKN009
TEMPO 0104/0109 4000 RA BR BKN004
BECMG 0109/0111 BKN013=



IMGW-PIB Sites